Time;durP1;ratioP1;P1;durP2;ratioP2;P2;SDS_P1;SDS_P2;PMS_P1;PMS_P2;Temp;Humidity;BMP_temperature;BMP_pressure;BME280_temperature;BME280_humidity;BME280_pressure;Samples;Min_cycle;Max_cycle;Signal;HPM_P1;HPM_P2
2022/05/03 04:02:19;;;;;;;19.10;17.30;;;11.10;99.90;;;;;;5178254;23;20848;-66
2022/05/03 04:04:49;;;;;;;19.90;18.17;;;11.10;99.90;;;;;;5015558;28;20437;-66
2022/05/03 04:07:15;;;;;;;18.93;17.33;;;11.10;99.90;;;;;;5015192;28;20813;-66
2022/05/03 04:09:42;;;;;;;19.87;17.87;;;11.10;99.90;;;;;;5016887;28;20452;-66
2022/05/03 04:12:09;;;;;;;19.03;17.40;;;11.10;99.90;;;;;;5021852;28;20975;-67
2022/05/03 04:14:36;;;;;;;19.50;17.80;;;11.20;99.90;;;;;;5017894;28;20880;-66
2022/05/03 04:17:03;;;;;;;19.20;17.63;;;11.20;99.90;;;;;;5015121;28;20974;-65
2022/05/03 04:19:31;;;;;;;19.60;17.90;;;11.20;99.90;;;;;;5015372;28;20433;-66
2022/05/03 04:22:12;;;;;;;20.03;17.83;;;11.20;99.90;;;;;;5014178;28;20497;-66
2022/05/03 04:24:39;;;;;;;20.37;18.53;;;11.30;99.90;;;;;;5015092;28;20444;-67
2022/05/03 04:27:06;;;;;;;17.83;16.33;;;11.30;99.90;;;;;;5015105;28;20478;-66
2022/05/03 04:29:32;;;;;;;17.67;16.17;;;11.30;99.90;;;;;;5015026;28;20467;-66
2022/05/03 04:31:59;;;;;;;17.80;16.40;;;11.30;99.90;;;;;;5014937;28;20506;-66
2022/05/03 04:34:26;;;;;;;18.63;16.93;;;11.30;99.90;;;;;;5014982;28;20469;-66
2022/05/03 04:36:54;;;;;;;19.33;17.70;;;11.30;99.90;;;;;;5014897;28;20804;-66
2022/05/03 04:39:21;;;;;;;18.97;17.30;;;11.30;99.90;;;;;;5014836;28;20512;-66
2022/05/03 04:41:48;;;;;;;18.80;16.90;;;11.40;99.90;;;;;;5014656;28;20484;-66
2022/05/03 04:44:14;;;;;;;17.50;15.90;;;11.40;99.90;;;;;;5014262;28;20453;-66
2022/05/03 04:46:41;;;;;;;18.00;16.27;;;11.50;99.90;;;;;;5014560;28;20810;-66
2022/05/03 04:49:08;;;;;;;18.80;17.23;;;11.50;99.90;;;;;;5014742;28;20457;-65
2022/05/03 04:51:34;;;;;;;19.27;17.50;;;11.60;99.90;;;;;;5014586;28;20480;-66
2022/05/03 04:54:02;;;;;;;20.43;18.43;;;11.60;99.90;;;;;;5015007;28;20473;-67
2022/05/03 04:56:29;;;;;;;21.03;19.23;;;11.70;99.90;;;;;;5014122;28;20944;-65
2022/05/03 04:58:56;;;;;;;20.67;18.93;;;11.70;99.90;;;;;;5014765;28;20461;-66
2022/05/03 05:01:24;;;;;;;21.83;19.80;;;11.70;99.90;;;;;;5014226;28;20490;-67
2022/05/03 05:03:51;;;;;;;20.13;18.20;;;11.80;99.90;;;;;;5014524;28;20464;-66
2022/05/03 05:06:19;;;;;;;20.30;18.50;;;11.80;99.90;;;;;;5014338;28;20456;-67
2022/05/03 05:08:46;;;;;;;17.77;16.27;;;11.80;99.90;;;;;;5014039;28;20551;-66
2022/05/03 05:11:14;;;;;;;19.33;16.30;;;11.90;99.90;;;;;;5014432;28;20484;-66
2022/05/03 05:13:41;;;;;;;20.40;18.27;;;12.00;99.90;;;;;;5014142;28;20481;-66
2022/05/03 05:16:08;;;;;;;22.37;18.50;;;12.10;99.90;;;;;;5014388;28;20456;-66
2022/05/03 05:18:35;;;;;;;20.73;19.00;;;12.20;99.90;;;;;;5014242;28;20479;-66
2022/05/03 05:21:02;;;;;;;19.97;18.17;;;12.20;99.90;;;;;;5014094;28;20477;-66
2022/05/03 05:23:29;;;;;;;22.10;19.90;;;12.40;99.90;;;;;;5014271;28;20449;-66
2022/05/03 05:25:56;;;;;;;18.80;17.30;;;12.50;99.90;;;;;;5014352;28;20453;-65
2022/05/03 05:28:26;;;;;;;19.37;17.77;;;12.60;99.90;;;;;;5014223;28;20877;-65
2022/05/03 05:30:53;;;;;;;20.57;18.77;;;12.70;99.90;;;;;;5014446;28;20473;-65
2022/05/03 05:33:20;;;;;;;18.70;16.77;;;12.70;99.90;;;;;;5013859;28;21014;-65
2022/05/03 05:35:47;;;;;;;16.67;15.37;;;12.90;99.90;;;;;;5017686;28;20459;-66
2022/05/03 05:38:15;;;;;;;17.70;16.20;;;13.10;99.90;;;;;;5018278;28;20504;-66
2022/05/03 05:40:41;;;;;;;16.97;15.60;;;13.40;99.90;;;;;;5017967;28;20473;-65
2022/05/03 05:43:08;;;;;;;17.17;15.43;;;13.70;99.90;;;;;;5017871;28;20449;-65
2022/05/03 05:45:37;;;;;;;17.20;15.50;;;14.00;99.90;;;;;;5017453;28;20483;-65
2022/05/03 05:48:04;;;;;;;17.33;15.70;;;14.30;99.90;;;;;;5017785;28;20460;-62
2022/05/03 05:50:31;;;;;;;15.43;14.13;;;14.50;99.90;;;;;;5017610;28;20866;-62
2022/05/03 05:55:43;;;;;;;17.87;16.37;;;15.00;99.90;;;;;;5017839;28;20903;-62
2022/05/03 05:58:10;;;;;;;15.80;14.50;;;15.30;99.90;;;;;;5017719;28;20958;-63
2022/05/03 06:00:38;;;;;;;17.43;16.00;;;15.40;99.90;;;;;;5017489;28;20480;-64
2022/05/03 06:03:05;;;;;;;18.23;16.73;;;15.40;99.90;;;;;;5017511;28;20533;-62
2022/05/03 06:05:32;;;;;;;17.77;16.10;;;15.60;99.90;;;;;;5017487;28;20456;-63
2022/05/03 06:08:00;;;;;;;18.17;16.57;;;15.70;99.90;;;;;;5017448;28;20463;-63
2022/05/03 06:10:28;;;;;;;19.40;17.70;;;15.80;99.90;;;;;;5017446;28;20461;-63
2022/05/03 06:12:54;;;;;;;20.37;18.50;;;15.70;99.90;;;;;;5018942;28;20457;-62
2022/05/03 06:15:21;;;;;;;18.80;17.20;;;15.60;99.90;;;;;;5019053;28;20456;-63
2022/05/03 06:17:49;;;;;;;16.63;15.10;;;15.90;99.90;;;;;;5019653;28;20452;-62
2022/05/03 06:20:16;;;;;;;16.93;15.50;;;16.40;99.90;;;;;;5019099;28;20453;-63
2022/05/03 06:22:43;;;;;;;16.77;15.37;;;17.00;99.90;;;;;;5018336;28;20449;-62
2022/05/03 06:25:10;;;;;;;14.03;13.03;;;17.30;99.90;;;;;;5019293;28;20843;-63
2022/05/03 06:27:38;;;;;;;14.10;13.00;;;17.80;99.90;;;;;;5019571;28;20464;-63
2022/05/03 06:30:05;;;;;;;14.73;13.10;;;18.40;99.90;;;;;;5018395;28;20457;-63
2022/05/03 06:32:32;;;;;;;13.83;12.83;;;18.90;99.90;;;;;;5018264;28;20480;-63
2022/05/03 06:35:00;;;;;;;13.83;12.73;;;19.30;99.90;;;;;;5018239;28;20485;-63
2022/05/03 06:37:27;;;;;;;13.70;12.70;;;19.70;99.90;;;;;;5018657;28;20449;-63
2022/05/03 06:39:54;;;;;;;14.10;13.10;;;20.00;99.90;;;;;;5017870;28;20453;-63
2022/05/03 06:42:20;;;;;;;15.87;14.30;;;20.00;99.90;;;;;;5016950;28;20979;-64
2022/05/03 06:44:47;;;;;;;15.53;14.07;;;19.40;99.90;;;;;;5016417;28;20457;-63
2022/05/03 06:47:14;;;;;;;14.83;13.53;;;19.40;99.90;;;;;;5017029;28;20488;-63
2022/05/03 06:49:41;;;;;;;13.67;12.60;;;19.40;99.90;;;;;;5016902;28;20515;-63
2022/05/03 06:52:09;;;;;;;12.60;11.70;;;19.80;99.90;;;;;;5024078;28;20472;-64
2022/05/03 06:54:35;;;;;;;12.17;10.80;;;20.20;99.90;;;;;;5025375;28;20522;-64
2022/05/03 06:57:02;;;;;;;13.20;12.00;;;20.80;99.90;;;;;;5023611;28;20453;-64
2022/05/03 06:59:29;;;;;;;13.80;12.67;;;21.50;99.90;;;;;;5019940;28;20464;-64
2022/05/03 07:01:56;;;;;;;11.70;10.60;;;21.80;99.90;;;;;;5018345;28;20480;-64
2022/05/03 07:04:22;;;;;;;12.17;10.93;;;22.30;99.90;;;;;;5019484;28;20456;-63
2022/05/03 07:06:49;;;;;;;13.50;12.43;;;22.60;99.90;;;;;;5019010;28;20453;-63
2022/05/03 07:09:17;;;;;;;11.77;10.87;;;22.90;99.90;;;;;;5017412;28;20452;-63
2022/05/03 07:11:44;;;;;;;10.27;9.37;;;23.40;99.90;;;;;;5017456;28;20543;-64
2022/05/03 07:14:10;;;;;;;12.83;11.77;;;23.90;99.90;;;;;;5017193;28;20483;-63
2022/05/03 07:16:37;;;;;;;12.10;11.10;;;24.30;99.00;;;;;;5016805;28;20948;-64
2022/05/03 07:24:33;;;;;;;11.63;10.83;;;25.20;94.70;;;;;;5016127;28;20416;-66
2022/05/03 07:27:00;;;;;;;12.07;11.07;;;25.50;93.10;;;;;;5015626;28;20840;-66
2022/05/03 07:29:27;;;;;;;11.37;10.57;;;25.70;93.30;;;;;;5016201;28;20563;-66
2022/05/03 07:31:54;;;;;;;11.70;10.60;;;25.70;92.30;;;;;;5015979;28;20488;-66
2022/05/03 07:34:21;;;;;;;11.80;11.00;;;25.90;89.80;;;;;;5015633;28;20473;-66
2022/05/03 07:36:47;;;;;;;11.30;10.53;;;26.00;92.20;;;;;;5016082;28;20456;-65
2022/05/03 07:39:14;;;;;;;12.17;11.23;;;25.90;89.20;;;;;;5015930;28;20460;-66
2022/05/03 07:41:42;;;;;;;11.23;10.20;;;25.70;89.70;;;;;;5015786;28;20473;-66
2022/05/03 07:44:09;;;;;;;9.50;8.90;;;25.50;90.80;;;;;;5015918;28;20457;-66
2022/05/03 07:46:35;;;;;;;9.87;9.13;;;25.90;89.20;;;;;;5015756;28;20507;-66
2022/05/03 07:49:02;;;;;;;10.53;9.83;;;26.20;84.40;;;;;;5016075;28;20460;-65
2022/05/03 07:51:29;;;;;;;9.00;8.40;;;26.40;87.70;;;;;;5015970;28;20481;-66
2022/05/03 07:53:56;;;;;;;9.13;8.53;;;26.10;85.80;;;;;;5015377;28;20484;-66
2022/05/03 07:56:22;;;;;;;9.27;8.57;;;26.20;84.60;;;;;;5015037;28;20459;-66
2022/05/03 07:58:50;;;;;;;8.73;8.23;;;26.40;82.30;;;;;;5015427;28;20449;-66
2022/05/03 08:01:17;;;;;;;9.60;8.90;;;26.30;81.90;;;;;;5015173;28;20580;-66
2022/05/03 08:03:44;;;;;;;9.43;8.63;;;26.80;84.50;;;;;;5015750;28;20457;-66
2022/05/03 08:06:10;;;;;;;9.00;8.40;;;27.00;81.70;;;;;;5015601;28;20461;-64
2022/05/03 08:08:37;;;;;;;8.00;7.50;;;27.20;79.70;;;;;;5016197;28;20456;-64
2022/05/03 08:11:04;;;;;;;8.60;7.90;;;27.60;76.60;;;;;;5015617;28;20476;-64
2022/05/03 08:13:31;;;;;;;8.13;7.63;;;27.90;74.00;;;;;;5015647;28;20483;-64
2022/05/03 08:15:59;;;;;;;9.70;9.10;;;27.50;75.80;;;;;;5015641;28;20452;-65
2022/05/03 08:18:26;;;;;;;9.97;9.27;;;26.80;74.20;;;;;;5015260;28;20978;-68
2022/05/03 08:20:53;;;;;;;10.10;9.30;;;26.60;76.50;;;;;;5015645;28;20544;-63
2022/05/03 08:23:20;;;;;;;9.47;8.77;;;26.10;76.60;;;;;;5015267;28;20488;-63
2022/05/03 08:25:47;;;;;;;10.37;9.53;;;25.90;78.70;;;;;;5015563;28;20451;-63
2022/05/03 08:28:14;;;;;;;9.30;8.60;;;26.60;82.20;;;;;;5015325;28;20456;-63
2022/05/03 08:30:41;;;;;;;9.17;8.27;;;27.40;77.80;;;;;;5015824;28;20859;-63
2022/05/03 08:33:09;;;;;;;9.47;8.67;;;28.30;74.50;;;;;;5015712;28;20535;-63
2022/05/03 08:35:36;;;;;;;9.07;8.50;;;28.80;69.70;;;;;;5015265;28;21010;-63
2022/05/03 08:43:31;;;;;;;7.87;7.27;;;29.30;68.80;;;;;;5015638;28;20785;-64
2022/05/03 08:46:01;;;;;;;6.40;5.90;;;29.20;70.20;;;;;;5015569;28;20876;-64
2022/05/03 08:48:33;;;;;;;6.43;5.83;;;29.70;66.10;;;;;;5015125;28;20464;-63
2022/05/03 08:51:01;;;;;;;6.77;6.33;;;29.90;62.60;;;;;;5015051;28;20991;-64
2022/05/03 08:53:28;;;;;;;6.30;5.90;;;29.90;61.80;;;;;;5015378;28;20461;-64
2022/05/03 08:55:55;;;;;;;5.43;5.00;;;29.80;62.50;;;;;;5015462;28;20472;-64
2022/05/03 08:58:23;;;;;;;4.83;4.63;;;29.70;58.80;;;;;;5015284;28;20437;-64
2022/05/03 09:00:50;;;;;;;5.00;4.73;;;29.60;61.70;;;;;;5014620;28;20491;-62
2022/05/03 09:03:17;;;;;;;5.00;4.70;;;29.30;59.10;;;;;;5015849;28;20536;-63
2022/05/03 09:05:45;;;;;;;5.90;5.40;;;28.70;58.90;;;;;;5014732;28;20540;-64
2022/05/03 09:08:11;;;;;;;5.40;4.70;;;28.20;59.40;;;;;;5014915;28;20453;-63
2022/05/03 09:10:39;;;;;;;6.53;6.03;;;27.90;61.10;;;;;;5014895;28;20473;-63
2022/05/03 09:13:18;;;;;;;5.73;5.37;;;27.10;63.60;;;;;;5014511;28;20822;-63
2022/05/03 09:15:46;;;;;;;8.90;5.00;;;26.70;63.60;;;;;;5014884;28;20464;-67
2022/05/03 09:18:21;;;;;;;5.90;5.50;;;26.50;65.40;;;;;;5015369;28;20526;-65
2022/05/03 09:23:48;;;;;;;5.57;5.27;;;26.00;66.50;;;;;;5014901;28;20420;-65
2022/05/03 09:26:17;;;;;;;4.83;4.53;;;25.30;66.10;;;;;;5014410;28;20440;-65
2022/05/03 09:28:46;;;;;;;5.90;5.43;;;25.60;68.80;;;;;;5014690;28;20457;-65
2022/05/03 09:31:13;;;;;;;5.90;5.47;;;25.80;66.20;;;;;;5014644;28;20856;-65
2022/05/03 09:33:40;;;;;;;5.13;4.83;;;25.90;67.30;;;;;;5014142;28;20940;-65
2022/05/03 09:36:12;;;;;;;6.03;5.57;;;26.00;70.00;;;;;;5014482;28;20476;-62
2022/05/03 09:38:46;;;;;;;5.20;4.90;;;26.30;68.20;;;;;;5014277;28;20457;-64
2022/05/03 09:41:15;;;;;;;6.13;5.53;;;27.00;64.80;;;;;;5016621;28;20508;-64
2022/05/03 09:44:07;;;;;;;6.10;5.60;;;27.30;65.80;;;;;;5031294;28;20445;-65
2022/05/03 09:46:52;;;;;;;7.37;6.77;;;27.10;67.70;;;;;;5017844;28;20927;-64
2022/05/03 09:49:21;;;;;;;6.70;6.13;;;27.50;66.30;;;;;;5014225;28;20531;-65
2022/05/03 09:51:49;;;;;;;7.07;6.10;;;28.20;63.10;;;;;;5014073;28;20531;-65
2022/05/03 09:54:17;;;;;;;6.97;6.57;;;28.70;63.60;;;;;;5013867;28;20461;-65
2022/05/03 09:56:49;;;;;;;6.40;6.10;;;29.30;62.40;;;;;;5014116;28;20437;-65
2022/05/03 09:59:17;;;;;;;5.80;5.50;;;29.80;60.10;;;;;;5013711;28;20520;-65
2022/05/03 10:01:44;;;;;;;6.20;5.60;;;30.20;58.80;;;;;;5013426;28;20515;-65
2022/05/03 10:04:11;;;;;;;6.50;6.10;;;30.70;60.60;;;;;;5013655;28;21002;-65
2022/05/03 10:06:38;;;;;;;6.37;5.97;;;31.30;57.00;;;;;;5014192;28;20468;-65
2022/05/03 10:09:07;;;;;;;6.33;6.03;;;30.90;58.80;;;;;;5013710;28;20970;-65
2022/05/03 10:11:35;;;;;;;5.20;4.90;;;31.40;57.50;;;;;;5013624;28;20567;-64
2022/05/03 10:14:02;;;;;;;6.70;6.17;;;31.80;59.40;;;;;;5013412;28;20552;-65
2022/05/03 10:22:04;;;;;;;11.23;10.23;;;31.30;57.30;;;;;;5017015;28;20455;-64
2022/05/03 10:24:53;;;;;;;73.83;42.30;;;30.50;58.10;;;;;;5017241;28;20456;-65
2022/05/03 10:27:23;;;;;;;8.03;7.43;;;30.00;59.20;;;;;;5017187;28;20437;-64
2022/05/03 10:30:16;;;;;;;8.00;7.30;;;30.40;59.50;;;;;;5016688;28;20962;-64
2022/05/03 10:32:42;;;;;;;7.50;6.90;;;30.20;58.50;;;;;;5017419;28;20515;-64
2022/05/03 10:35:32;;;;;;;7.20;6.80;;;29.50;60.00;;;;;;5016950;28;20476;-64
2022/05/03 10:38:06;;;;;;;9.00;8.30;;;29.20;60.60;;;;;;5016564;28;20832;-64
2022/05/03 10:40:40;;;;;;;9.20;8.40;;;28.80;61.20;;;;;;5016838;28;20544;-65
2022/05/03 10:43:10;;;;;;;7.17;6.57;;;28.80;62.40;;;;;;5017089;28;20444;-64
2022/05/03 10:45:52;;;;;;;7.90;7.30;;;28.70;63.50;;;;;;5016811;28;20528;-64
2022/05/03 10:48:26;;;;;;;7.27;6.63;;;28.70;62.20;;;;;;5016639;28;20460;-64
2022/05/03 10:50:54;;;;;;;7.00;6.53;;;28.40;62.30;;;;;;5016537;28;20479;-64
2022/05/03 10:53:28;;;;;;;8.93;6.60;;;27.90;62.00;;;;;;5016917;28;20456;-64
2022/05/03 10:56:09;;;;;;;8.20;7.60;;;27.40;66.90;;;;;;5016410;28;20815;-65
2022/05/03 10:58:37;;;;;;;7.10;6.60;;;27.10;65.50;;;;;;5016644;28;20445;-64
2022/05/03 11:01:06;;;;;;;7.70;7.20;;;27.30;66.90;;;;;;5015888;28;20950;-65
2022/05/03 11:03:34;;;;;;;6.90;6.20;;;27.50;65.30;;;;;;5016605;28;20479;-64
2022/05/03 11:06:32;;;;;;;7.80;6.07;;;27.90;67.50;;;;;;5016380;28;20449;-64
2022/05/03 11:09:10;;;;;;;7.97;7.20;;;28.20;66.20;;;;;;5016370;28;20452;-65
2022/05/03 11:12:01;;;;;;;6.43;6.03;;;28.90;64.70;;;;;;5016135;28;20472;-64
2022/05/03 11:14:50;;;;;;;5.70;5.30;;;29.20;64.70;;;;;;5016203;28;20461;-65
2022/05/03 11:17:18;;;;;;;6.90;6.43;;;29.60;63.40;;;;;;5016635;28;20443;-63
2022/05/03 11:19:58;;;;;;;8.87;6.80;;;29.50;61.20;;;;;;5016534;28;20908;-65
2022/05/03 11:22:27;;;;;;;7.00;6.50;;;29.20;61.20;;;;;;5016458;28;20480;-63
2022/05/03 11:24:56;;;;;;;7.87;7.30;;;29.20;61.20;;;;;;5017000;28;20460;-64
2022/05/03 11:27:26;;;;;;;6.30;5.93;;;28.60;62.10;;;;;;5017289;28;20460;-64
2022/05/03 11:29:58;;;;;;;5.20;4.80;;;28.50;65.90;;;;;;5016281;28;20453;-64
2022/05/03 11:32:30;;;;;;;7.03;6.53;;;28.30;61.20;;;;;;5016573;28;20480;-63
2022/05/03 11:35:01;;;;;;;6.70;6.20;;;28.20;64.00;;;;;;5015899;28;20487;-64
2022/05/03 11:37:28;;;;;;;7.73;7.10;;;27.90;65.60;;;;;;5016829;28;20511;-64
2022/05/03 11:40:08;;;;;;;6.93;6.33;;;27.90;62.30;;;;;;5015820;28;20480;-63
2022/05/03 11:42:44;;;;;;;6.80;6.30;;;27.60;63.10;;;;;;5015825;28;20480;-64
2022/05/03 11:45:12;;;;;;;7.77;7.20;;;27.00;64.20;;;;;;5016379;28;20449;-63
2022/05/03 11:47:41;;;;;;;6.70;6.20;;;26.60;65.10;;;;;;5015445;28;20457;-63
2022/05/03 11:50:09;;;;;;;6.33;5.93;;;25.90;66.20;;;;;;5015330;28;20460;-63
2022/05/03 11:58:08;;;;;;;7.23;6.63;;;26.00;68.40;;;;;;5011323;28;20825;-63
2022/05/03 12:00:49;;;;;;;6.20;5.70;;;25.60;70.00;;;;;;5015565;28;20531;-64
2022/05/03 12:03:17;;;;;;;5.90;5.47;;;25.70;70.80;;;;;;5015784;28;20491;-64
2022/05/03 12:06:02;;;;;;;8.20;5.53;;;25.60;70.20;;;;;;5020142;28;20445;-64
2022/05/03 12:08:29;;;;;;;5.63;5.20;;;25.90;70.30;;;;;;5017305;28;20526;-64
2022/05/03 12:10:57;;;;;;;5.30;5.00;;;26.20;71.30;;;;;;5015262;28;20509;-63
2022/05/03 12:13:31;;;;;;;5.50;5.20;;;26.60;68.10;;;;;;5015340;28;20955;-63
2022/05/03 12:16:11;;;;;;;5.67;5.17;;;26.80;65.40;;;;;;5016528;28;20539;-63
2022/05/03 12:18:39;;;;;;;5.53;5.03;;;26.70;68.20;;;;;;5015926;28;20441;-64
2022/05/03 12:21:09;;;;;;;5.60;5.20;;;26.80;64.80;;;;;;5015463;28;20473;-63
2022/05/03 12:23:45;;;;;;;4.50;4.20;;;27.00;65.20;;;;;;5016064;28;20464;-63
2022/05/03 12:26:21;;;;;;;4.57;4.30;;;27.30;64.40;;;;;;5015617;28;20449;-63
2022/05/03 12:28:51;;;;;;;6.27;4.27;;;27.50;63.40;;;;;;5015715;28;20448;-64
2022/05/03 12:31:20;;;;;;;4.93;4.13;;;27.20;58.60;;;;;;5015238;28;20503;-63
2022/05/03 12:33:52;;;;;;;4.43;4.13;;;27.20;58.80;;;;;;5015024;28;20453;-63
2022/05/03 12:36:33;;;;;;;4.17;3.80;;;26.90;60.00;;;;;;5015247;28;20461;-63
2022/05/03 12:39:09;;;;;;;4.73;4.40;;;27.10;59.90;;;;;;5015345;28;20452;-63
2022/05/03 12:41:37;;;;;;;3.10;3.00;;;27.40;58.70;;;;;;5015765;28;20480;-64
2022/05/03 12:44:08;;;;;;;4.57;4.17;;;27.40;59.10;;;;;;5014373;28;20453;-66
2022/05/03 13:02:29;;;;;;;3.40;3.20;;;26.50;57.40;;;;;;5132196;27;20921;-64
2022/05/03 13:04:55;;;;;;;3.63;3.40;;;25.90;58.80;;;;;;5131930;28;20444;-65
2022/05/03 13:07:22;;;;;;;4.00;3.70;;;25.30;59.90;;;;;;5131776;28;20440;-64
2022/05/03 13:24:41;;;;;;;5.80;5.40;;;24.20;63.20;;;;;;5091470;27;21114;-64
2022/05/03 13:27:08;;;;;;;5.53;5.13;;;21.90;76.60;;;;;;5091370;28;20445;-64
2022/05/03 13:29:35;;;;;;;5.70;5.10;;;21.70;76.80;;;;;;5091271;28;20445;-64
2022/05/03 13:32:02;;;;;;;7.93;4.70;;;21.60;77.60;;;;;;5090832;28;21003;-64
2022/05/03 13:34:29;;;;;;;4.87;4.57;;;21.30;78.40;;;;;;5091127;28;20496;-63
2022/05/03 13:42:26;;;;;;;7.50;6.17;;;20.70;81.90;;;;;;5091135;28;20412;-63
2022/05/03 13:44:53;;;;;;;5.93;5.40;;;20.40;82.90;;;;;;5091291;28;20475;-63
2022/05/03 13:47:20;;;;;;;12.30;6.00;;;20.00;83.00;;;;;;5091102;28;20506;-63
2022/05/03 13:49:48;;;;;;;9.77;5.20;;;19.60;85.80;;;;;;5091300;28;20520;-64
2022/05/03 13:52:15;;;;;;;5.33;5.03;;;19.40;88.10;;;;;;5091036;28;20445;-63
2022/05/03 13:54:43;;;;;;;5.90;5.50;;;19.10;90.30;;;;;;5091024;28;20519;-63
2022/05/03 13:57:10;;;;;;;7.37;5.30;;;18.90;91.70;;;;;;5090742;28;20457;-64
2022/05/03 13:59:36;;;;;;;5.40;5.00;;;18.70;92.00;;;;;;5090838;28;20454;-64
2022/05/03 14:02:06;;;;;;;6.50;5.00;;;18.50;93.10;;;;;;5101196;28;20826;-64
2022/05/03 14:04:33;;;;;;;11.23;6.93;;;18.40;95.00;;;;;;5100643;28;20544;-63
2022/05/03 14:07:00;;;;;;;6.40;5.90;;;18.40;96.90;;;;;;5091443;28;20548;-63
2022/05/03 14:09:27;;;;;;;5.60;5.27;;;18.40;97.60;;;;;;5090554;28;20456;-62
2022/05/03 14:11:56;;;;;;;6.53;6.07;;;18.40;97.80;;;;;;5090104;28;20895;-63
2022/05/03 14:14:23;;;;;;;6.20;5.60;;;18.40;98.20;;;;;;5090065;28;20481;-63
2022/05/03 14:16:50;;;;;;;6.77;6.00;;;18.40;98.80;;;;;;5089727;28;20822;-62
2022/05/03 14:19:17;;;;;;;6.30;5.90;;;18.50;99.10;;;;;;5089921;28;20548;-62
2022/05/03 14:21:43;;;;;;;5.93;5.43;;;18.50;98.80;;;;;;5090107;28;20460;-64
2022/05/03 14:24:10;;;;;;;5.93;5.43;;;18.70;99.10;;;;;;5084716;28;20480;-64
2022/05/03 14:26:37;;;;;;;5.70;5.30;;;18.80;99.80;;;;;;5076789;28;20449;-63
2022/05/03 14:29:07;;;;;;;6.90;6.07;;;18.90;99.90;;;;;;5076554;28;20450;-63
2022/05/03 14:31:35;;;;;;;6.20;5.70;;;19.00;99.00;;;;;;5078056;28;20492;-63
2022/05/03 14:34:02;;;;;;;6.20;5.70;;;19.00;99.30;;;;;;5081920;28;20477;-62
2022/05/03 14:36:29;;;;;;;6.57;6.07;;;19.00;98.40;;;;;;5080921;28;20458;-62
2022/05/03 14:38:56;;;;;;;6.50;6.00;;;19.00;98.60;;;;;;5082906;28;20453;-63
2022/05/03 14:41:23;;;;;;;6.23;5.77;;;19.00;99.90;;;;;;5083876;28;20860;-63
2022/05/03 14:43:50;;;;;;;6.80;6.30;;;19.00;99.90;;;;;;5084107;28;20474;-63
2022/05/03 14:46:18;;;;;;;13.23;7.37;;;18.90;99.90;;;;;;5084822;28;20446;-63
2022/05/03 14:48:45;;;;;;;6.23;5.63;;;18.80;99.90;;;;;;5085226;28;20451;-63
2022/05/03 14:51:12;;;;;;;6.20;5.80;;;18.70;99.90;;;;;;5085083;28;20454;-63
2022/05/03 14:53:39;;;;;;;7.00;6.40;;;18.60;99.90;;;;;;5084358;28;20502;-62
2022/05/03 15:04:20;;;;;;;5.80;5.40;;;18.50;99.90;;;;;;5082108;28;21024;-63
2022/05/03 15:06:47;;;;;;;5.50;5.10;;;18.50;99.90;;;;;;5076628;28;20507;-63
2022/05/03 15:09:14;;;;;;;5.47;5.07;;;18.60;99.90;;;;;;5075998;28;20592;-64
2022/05/03 15:11:41;;;;;;;5.70;5.20;;;18.60;99.90;;;;;;5075593;28;20942;-62
2022/05/03 15:14:08;;;;;;;6.00;5.50;;;18.70;99.90;;;;;;5075704;28;20482;-64
2022/05/03 15:16:36;;;;;;;5.37;4.77;;;18.70;99.90;;;;;;5075868;28;20446;-63
2022/05/03 15:19:03;;;;;;;4.13;3.90;;;18.80;99.90;;;;;;5076456;28;20458;-63
2022/05/03 15:21:30;;;;;;;4.10;3.73;;;18.90;99.90;;;;;;5081141;28;20450;-63
2022/05/03 15:26:41;;;;;;;5.40;4.63;;;19.00;99.70;;;;;;5082926;28;20476;-62
2022/05/03 15:29:07;;;;;;;5.53;5.13;;;19.00;99.70;;;;;;5082694;28;20480;-63
2022/05/03 15:31:35;;;;;;;5.67;5.03;;;19.00;99.90;;;;;;5083257;28;20480;-64
2022/05/03 15:34:03;;;;;;;6.10;4.73;;;19.00;99.90;;;;;;5083563;28;20493;-64
2022/05/03 15:36:29;;;;;;;4.87;4.57;;;19.10;99.90;;;;;;5084454;28;20450;-63
2022/05/03 15:38:56;;;;;;;5.53;4.23;;;19.00;99.80;;;;;;5085954;28;20449;-65
2022/05/03 15:41:23;;;;;;;11.13;4.30;;;19.00;99.90;;;;;;5087853;28;20541;-64
2022/05/03 15:43:50;;;;;;;4.47;4.07;;;19.00;99.90;;;;;;5080959;28;20466;-64
2022/05/03 15:46:18;;;;;;;4.63;4.23;;;19.10;99.90;;;;;;5077117;28;20500;-63
2022/05/03 15:48:46;;;;;;;4.50;4.20;;;19.20;99.90;;;;;;5076073;28;20457;-63
2022/05/03 15:51:13;;;;;;;4.93;4.37;;;19.40;99.90;;;;;;5076326;28;20512;-64
2022/05/03 15:53:40;;;;;;;6.50;4.73;;;19.40;99.90;;;;;;5075294;28;20470;-63
2022/05/03 15:56:07;;;;;;;4.93;4.20;;;19.40;99.70;;;;;;5075246;28;20454;-63
2022/05/03 15:58:33;;;;;;;4.83;4.33;;;19.40;99.90;;;;;;5075199;28;20457;-64
2022/05/03 16:01:03;;;;;;;4.20;3.90;;;19.50;99.60;;;;;;5074819;28;20527;-64
2022/05/03 16:03:30;;;;;;;4.40;4.20;;;19.40;99.00;;;;;;5074966;28;20986;-63
2022/05/03 16:05:59;;;;;;;5.17;4.67;;;19.40;98.90;;;;;;5075161;28;20817;-63
2022/05/03 16:08:26;;;;;;;4.90;4.30;;;19.40;99.60;;;;;;5074806;28;20552;-63
2022/05/03 16:10:53;;;;;;;4.30;3.87;;;19.40;99.90;;;;;;5074526;28;20894;-65
2022/05/03 16:13:20;;;;;;;4.73;4.23;;;19.40;99.90;;;;;;5074983;28;20470;-64
2022/05/03 16:15:47;;;;;;;4.30;3.90;;;19.50;99.90;;;;;;5074837;28;20470;-64
2022/05/03 16:18:14;;;;;;;5.07;4.37;;;19.60;98.60;;;;;;5074429;28;20961;-65
2022/05/03 16:20:41;;;;;;;7.60;5.17;;;19.70;98.50;;;;;;5074459;28;20454;-63
2022/05/03 16:23:09;;;;;;;13.40;4.70;;;19.90;98.00;;;;;;5074666;28;20458;-64
2022/05/03 16:25:36;;;;;;;12.70;4.17;;;19.90;97.30;;;;;;5075975;28;20528;-64
2022/05/03 16:28:03;;;;;;;6.27;3.87;;;20.10;96.40;;;;;;5075917;28;20451;-66
2022/05/03 16:30:30;;;;;;;5.20;3.50;;;20.10;96.00;;;;;;5075727;28;20954;-68
2022/05/03 16:32:57;;;;;;;3.07;2.87;;;20.10;95.30;;;;;;5075602;28;20450;-64
2022/05/03 16:35:24;;;;;;;3.87;3.67;;;20.10;94.40;;;;;;5075608;28;21036;-64
2022/05/03 16:43:34;;;;;;;4.77;3.77;;;20.00;94.80;;;;;;4994287;28;20890;-64
2022/05/03 16:46:01;;;;;;;5.03;4.07;;;20.10;95.20;;;;;;4994579;28;20477;-63
2022/05/03 16:48:28;;;;;;;4.37;3.97;;;20.20;94.40;;;;;;5029333;28;20533;-65
2022/05/03 16:50:55;;;;;;;4.97;4.10;;;20.30;95.00;;;;;;5075729;28;20473;-64
2022/05/03 16:53:21;;;;;;;5.67;4.37;;;20.40;94.70;;;;;;5075671;28;20850;-65
2022/05/03 16:55:49;;;;;;;3.50;3.20;;;20.40;94.80;;;;;;5076908;28;20496;-64
2022/05/03 16:58:16;;;;;;;5.57;3.43;;;20.50;94.60;;;;;;5076817;28;20463;-69
2022/05/03 17:00:43;;;;;;;3.57;3.40;;;20.60;94.30;;;;;;5077191;28;20982;-63
2022/05/03 17:03:10;;;;;;;3.63;3.23;;;20.60;94.60;;;;;;5073938;28;20934;-64
2022/05/03 17:05:37;;;;;;;7.03;4.57;;;20.60;95.30;;;;;;5074194;28;20474;-64
2022/05/03 17:08:05;;;;;;;3.93;3.40;;;20.60;96.70;;;;;;5074880;28;20528;-64
2022/05/03 17:10:32;;;;;;;3.20;3.00;;;20.60;95.80;;;;;;5074750;28;20450;-63
2022/05/03 17:13:00;;;;;;;5.83;5.03;;;20.50;94.80;;;;;;5076859;28;20802;-64
2022/05/03 17:15:26;;;;;;;3.70;3.47;;;20.50;94.20;;;;;;5089981;28;20453;-64
2022/05/03 17:17:53;;;;;;;3.80;3.50;;;20.40;93.80;;;;;;5080711;28;20476;-64
2022/05/03 17:20:21;;;;;;;4.83;3.50;;;20.30;93.70;;;;;;5074441;28;20541;-64
2022/05/03 17:22:47;;;;;;;4.40;4.10;;;20.20;94.40;;;;;;5073833;28;20457;-63
2022/05/03 17:25:15;;;;;;;3.80;3.50;;;20.10;95.80;;;;;;5073856;28;20468;-63
2022/05/03 17:27:43;;;;;;;7.10;6.40;;;20.00;95.70;;;;;;5073781;28;20450;-63
2022/05/03 17:30:15;;;;;;;3.50;3.30;;;20.00;96.20;;;;;;5073499;28;20541;-63
2022/05/03 17:32:41;;;;;;;3.37;3.07;;;20.00;96.50;;;;;;5073683;28;20461;-64
2022/05/03 17:35:09;;;;;;;4.10;3.67;;;19.90;96.30;;;;;;5074211;28;20489;-63
2022/05/03 17:37:36;;;;;;;4.23;3.60;;;19.90;97.10;;;;;;5074331;28;20450;-64
2022/05/03 17:40:03;;;;;;;5.20;3.80;;;19.80;97.30;;;;;;5073703;28;20914;-64
2022/05/03 17:42:30;;;;;;;3.93;3.53;;;19.80;97.80;;;;;;5074544;28;20257;-64
2022/05/03 17:44:57;;;;;;;4.77;4.37;;;19.70;96.30;;;;;;5074322;28;20520;-65
2022/05/03 17:47:25;;;;;;;4.83;3.50;;;19.70;96.40;;;;;;5074271;28;20826;-64
2022/05/03 17:49:52;;;;;;;5.40;4.73;;;19.50;97.30;;;;;;5073726;28;20460;-64
2022/05/03 17:55:03;;;;;;;4.23;3.83;;;19.40;98.10;;;;;;5073495;28;20584;-64
2022/05/03 17:57:30;;;;;;;4.57;4.27;;;19.30;99.50;;;;;;5073811;28;20449;-65
2022/05/03 17:59:56;;;;;;;4.70;3.70;;;19.20;99.90;;;;;;5076499;28;20454;-64
2022/05/03 18:02:25;;;;;;;3.77;3.47;;;19.20;99.90;;;;;;5078109;28;20454;-64
2022/05/03 18:04:51;;;;;;;5.07;3.90;;;19.10;99.90;;;;;;5077976;28;20476;-65
2022/05/03 18:07:19;;;;;;;5.17;4.77;;;19.00;99.90;;;;;;5077858;28;20454;-64
2022/05/03 18:09:46;;;;;;;5.13;4.70;;;19.00;99.90;;;;;;5077659;28;20481;-64
2022/05/03 18:12:13;;;;;;;9.07;5.60;;;18.90;99.90;;;;;;5078151;28;20790;-64